Time;durP1;ratioP1;P1;durP2;ratioP2;P2;SDS_P1;SDS_P2;PMS_P1;PMS_P2;Temp;Humidity;BMP_temperature;BMP_pressure;BME280_temperature;BME280_humidity;BME280_pressure;Samples;Min_cycle;Max_cycle;Signal;HPM_P1;HPM_P2
2023/04/01 00:00:26;;;;;;;14.93;9.07;;;;;;;10.58;52.09;93933.28;5068943;28;20123;-76
2023/04/01 00:02:52;;;;;;;12.52;8.20;;;;;;;10.66;52.34;93929.94;5094778;28;20530;-77
2023/04/01 00:05:17;;;;;;;11.85;5.57;;;;;;;10.16;52.83;93905.25;5110206;28;20079;-76
2023/04/01 00:07:43;;;;;;;8.90;5.55;;;;;;;10.36;52.50;93923.31;5091868;28;20032;-76
2023/04/01 00:10:10;;;;;;;11.38;5.28;;;;;;;10.25;52.91;93914.78;5056661;28;20461;-77
2023/04/01 00:12:35;;;;;;;11.52;6.05;;;;;;;10.25;53.31;93913.94;5079896;28;20059;-77
2023/04/01 00:15:01;;;;;;;8.52;5.15;;;;;;;10.33;52.67;93928.81;5093301;28;20070;-75
2023/04/01 00:17:27;;;;;;;8.68;5.70;;;;;;;10.26;53.19;93920.78;5089391;28;20051;-75
2023/04/01 00:19:54;;;;;;;9.93;6.75;;;;;;;10.03;54.71;93930.75;5088272;28;20043;-76
2023/04/01 00:22:20;;;;;;;14.27;7.20;;;;;;;10.08;54.35;93933.69;5056326;28;20429;-76
2023/04/01 00:24:45;;;;;;;13.43;6.75;;;;;;;10.23;53.89;93945.25;5072742;28;20431;-76
2023/04/01 00:27:11;;;;;;;10.30;6.80;;;;;;;10.13;54.30;93933.28;5067461;28;20031;-76
2023/04/01 00:29:36;;;;;;;11.02;6.53;;;;;;;10.14;53.93;93927.13;5092965;28;20054;-76
2023/04/01 00:32:02;;;;;;;14.23;6.60;;;;;;;9.58;55.31;93928.88;5093074;28;20036;-75
2023/04/01 00:34:27;;;;;;;10.57;5.90;;;;;;;9.39;55.34;93893.50;5074726;28;20478;-76
2023/04/01 00:36:53;;;;;;;11.50;6.95;;;;;;;9.46;55.80;93888.56;5093477;28;20024;-76
2023/04/01 00:39:20;;;;;;;11.07;6.25;;;;;;;9.44;55.77;93880.09;5075931;28;20507;-75
2023/04/01 00:41:46;;;;;;;13.98;6.40;;;;;;;9.71;55.84;93937.16;5092342;28;20073;-76
2023/04/01 00:44:15;;;;;;;14.27;6.15;;;;;;;9.69;55.91;93913.16;5073247;28;20041;-75
2023/04/01 00:46:40;;;;;;;13.50;7.10;;;;;;;9.69;55.96;93923.50;5055872;28;20078;-75
2023/04/01 00:49:06;;;;;;;13.93;6.53;;;;;;;9.71;56.24;93907.81;5066783;28;20032;-76
2023/04/01 00:51:31;;;;;;;11.70;6.40;;;;;;;9.44;56.32;93900.84;5092687;28;20032;-75
2023/04/01 00:53:58;;;;;;;13.68;6.20;;;;;;;9.47;56.64;93905.72;5071757;28;20047;-75
2023/04/01 00:56:30;;;;;;;9.65;5.80;;;;;;;9.37;57.37;93891.03;5072311;28;20032;-75
2023/04/01 00:59:00;;;;;;;11.98;5.93;;;;;;;9.44;57.55;93900.84;5055914;28;20402;-76
2023/04/01 01:01:26;;;;;;;8.67;6.53;;;;;;;9.51;58.39;93904.50;5055489;28;20040;-76
2023/04/01 01:03:51;;;;;;;10.88;6.15;;;;;;;9.46;59.71;93893.75;5066908;28;20028;-75
2023/04/01 01:06:34;;;;;;;13.10;7.15;;;;;;;9.52;58.87;93906.13;5055334;28;20044;-75
2023/04/01 01:09:10;;;;;;;12.85;6.32;;;;;;;9.16;59.17;93846.38;5056807;28;20037;-76
2023/04/01 01:11:54;;;;;;;10.77;5.68;;;;;;;9.39;59.76;93889.13;5056499;28;20036;-76
2023/04/01 01:14:29;;;;;;;9.27;5.45;;;;;;;9.28;58.11;93884.13;5071384;28;20058;-77
2023/04/01 01:17:00;;;;;;;10.35;5.30;;;;;;;9.21;58.63;93874.47;5071972;28;20494;-75
2023/04/01 01:19:48;;;;;;;9.23;5.00;;;;;;;8.92;59.36;93831.31;5088586;28;20024;-76
2023/04/01 01:22:34;;;;;;;7.68;4.43;;;;;;;9.01;59.51;93855.56;5088623;28;20123;-77
2023/04/01 01:25:14;;;;;;;8.70;4.43;;;;;;;8.78;59.41;93839.53;5092081;28;20028;-77
2023/04/01 01:27:40;;;;;;;10.50;4.00;;;;;;;8.97;59.85;93861.97;5075369;28;20504;-77
2023/04/01 01:30:06;;;;;;;8.50;4.15;;;;;;;8.99;59.76;93862.66;5071265;28;20163;-76
2023/04/01 01:33:12;;;;;;;6.53;3.63;;;;;;;9.03;60.14;93870.00;5071800;28;20032;-76
2023/04/01 01:35:40;;;;;;;7.90;3.70;;;;;;;8.97;59.07;93855.03;5057279;28;20395;-76
2023/04/01 01:38:32;;;;;;;5.97;3.70;;;;;;;8.97;58.38;93861.97;5055090;28;20028;-76
2023/04/01 01:40:58;;;;;;;10.65;4.00;;;;;;;8.69;58.63;93830.81;5069247;28;20048;-76
2023/04/01 01:43:25;;;;;;;12.73;5.78;;;;;;;8.81;58.59;93842.66;5054810;28;20032;-76
2023/04/01 01:45:54;;;;;;;10.63;4.68;;;;;;;8.80;59.05;93832.44;5054874;28;20502;-77
2023/04/01 01:48:19;;;;;;;7.85;4.47;;;;;;;8.76;59.92;93816.38;5059886;28;20032;-76
2023/04/01 01:50:45;;;;;;;6.35;4.20;;;;;;;8.78;58.82;93824.00;5074575;28;20089;-76
2023/04/01 01:53:12;;;;;;;8.07;4.22;;;;;;;8.66;59.53;93819.00;5057974;28;20066;-76
2023/04/01 01:55:39;;;;;;;10.23;4.97;;;;;;;8.89;57.41;93822.06;5074576;28;20028;-77
2023/04/01 01:58:13;;;;;;;12.98;5.82;;;;;;;9.07;57.26;93832.50;5044248;28;20025;-76
2023/04/01 02:00:40;;;;;;;11.10;4.57;;;;;;;9.05;56.86;93818.03;5072098;28;20125;-76
2023/04/01 02:03:05;;;;;;;6.88;4.25;;;;;;;9.18;56.39;93823.72;5071005;28;20453;-75
2023/04/01 02:05:31;;;;;;;8.20;4.22;;;;;;;9.22;56.92;93816.47;5053870;28;20041;-75
2023/04/01 02:08:26;;;;;;;9.40;4.30;;;;;;;9.24;57.97;93810.19;5070761;28;20517;-76
2023/04/01 02:11:02;;;;;;;7.40;4.00;;;;;;;8.83;57.72;93765.66;5056990;28;20036;-76
2023/04/01 02:13:40;;;;;;;9.65;4.90;;;;;;;8.95;58.32;93774.06;5054658;28;20478;-77
2023/04/01 02:16:15;;;;;;;9.00;4.70;;;;;;;9.11;58.09;93799.34;5064098;28;20032;-77
2023/04/01 02:18:41;;;;;;;10.45;4.05;;;;;;;9.22;58.95;93806.13;5059196;28;20036;-76
2023/04/01 02:21:06;;;;;;;8.02;3.88;;;;;;;9.28;58.61;93803.78;5089000;28;20089;-77
2023/04/01 02:23:33;;;;;;;9.45;4.05;;;;;;;9.16;59.08;93792.78;5088785;28;20418;-76
2023/04/01 02:25:59;;;;;;;7.45;4.00;;;;;;;9.17;57.58;93780.66;5090566;28;20062;-76
2023/04/01 02:28:25;;;;;;;12.48;4.03;;;;;;;8.95;57.26;93750.75;5074150;28;20024;-76
2023/04/01 02:30:50;;;;;;;10.40;6.25;;;;;;;9.22;57.76;93791.41;5089701;28;20459;-77
2023/04/01 02:33:16;;;;;;;14.98;8.02;;;;;;;9.17;57.96;93765.91;5073965;28;20512;-76
2023/04/01 02:35:42;;;;;;;8.40;6.00;;;;;;;9.13;58.06;93777.50;5073829;28;20032;-77
2023/04/01 02:38:07;;;;;;;13.75;7.03;;;;;;;9.19;57.93;93791.66;5073745;28;20036;-76
2023/04/01 02:40:45;;;;;;;12.18;6.30;;;;;;;9.07;59.44;93761.72;5090477;28;20401;-77
2023/04/01 02:43:11;;;;;;;11.60;5.68;;;;;;;9.15;59.52;93779.97;5073781;28;20028;-76
2023/04/01 02:45:36;;;;;;;10.13;6.00;;;;;;;9.05;59.45;93768.81;5073516;28;20032;-76
2023/04/01 02:48:01;;;;;;;11.95;6.60;;;;;;;9.20;59.69;93788.13;5073567;28;20028;-76
2023/04/01 02:50:27;;;;;;;9.25;5.57;;;;;;;9.25;60.23;93796.28;5090343;28;20031;-76
2023/04/01 02:52:52;;;;;;;8.88;5.95;;;;;;;9.27;59.24;93804.72;5090510;28;20043;-77
2023/04/01 02:55:18;;;;;;;8.52;5.10;;;;;;;9.31;59.44;93816.44;5091503;28;20028;-76
2023/04/01 02:57:43;;;;;;;15.30;5.40;;;;;;;9.19;59.02;93786.47;5090536;28;20085;-76
2023/04/01 03:00:11;;;;;;;10.20;5.03;;;;;;;9.25;58.67;93804.06;5056923;28;20047;-76
2023/04/01 03:02:38;;;;;;;8.25;4.50;;;;;;;9.09;58.04;93785.72;5073489;28;20039;-76
2023/04/01 03:05:05;;;;;;;11.77;4.20;;;;;;;9.19;57.70;93822.75;5073074;28;20052;-76
2023/04/01 03:07:31;;;;;;;10.82;4.20;;;;;;;9.31;58.48;93828.59;5057116;28;20039;-76
2023/04/01 03:09:56;;;;;;;10.85;3.90;;;;;;;9.40;55.58;93819.94;5073068;28;20055;-77
2023/04/01 03:12:22;;;;;;;8.07;3.92;;;;;;;9.07;55.26;93766.91;5091932;28;20032;-77
2023/04/01 03:14:47;;;;;;;6.40;4.22;;;;;;;9.56;55.22;93838.28;5073456;28;20032;-77
2023/04/01 03:17:13;;;;;;;21.17;10.00;;;;;;;9.60;56.20;93836.22;5090115;28;20468;-76
2023/04/01 03:19:38;;;;;;;21.83;14.38;;;;;;;9.47;55.91;93826.22;5056330;28;20040;-75
2023/04/01 03:22:03;;;;;;;14.50;10.30;;;;;;;9.28;56.29;93831.47;5089948;28;20096;-76
2023/04/01 03:24:29;;;;;;;10.50;5.35;;;;;;;9.29;56.07;93826.13;5089807;28;20040;-75
2023/04/01 03:26:54;;;;;;;12.90;6.63;;;;;;;9.34;56.09;93823.94;5073054;28;20028;-75
2023/04/01 03:29:20;;;;;;;12.82;6.32;;;;;;;9.25;56.59;93811.84;5056211;28;20036;-75
2023/04/01 03:31:45;;;;;;;14.48;9.23;;;;;;;9.38;56.38;93825.25;5089665;28;20035;-76
2023/04/01 03:34:11;;;;;;;15.57;7.95;;;;;;;9.48;56.16;93832.19;5072794;28;20399;-76
2023/04/01 03:36:36;;;;;;;8.85;5.78;;;;;;;9.38;55.32;93833.03;5089193;28;20395;-76
2023/04/01 03:39:03;;;;;;;8.90;5.00;;;;;;;9.43;54.92;93827.44;5072785;28;20035;-76
2023/04/01 03:41:29;;;;;;;9.15;5.38;;;;;;;9.44;55.29;93833.44;5073000;28;20039;-75
2023/04/01 03:43:54;;;;;;;12.20;5.82;;;;;;;9.58;55.76;93831.19;5090821;28;20020;-75
2023/04/01 03:46:20;;;;;;;7.75;4.82;;;;;;;9.73;54.70;93821.13;5072973;28;20032;-75
2023/04/01 03:48:46;;;;;;;9.90;4.80;;;;;;;9.69;53.95;93809.41;5071611;28;20093;-75
2023/04/01 03:51:11;;;;;;;14.00;5.65;;;;;;;9.75;54.21;93806.25;5072502;28;20020;-75
2023/04/01 03:53:37;;;;;;;8.90;5.93;;;;;;;9.87;54.97;93821.59;5123588;28;20043;-75
2023/04/01 03:56:06;;;;;;;13.68;4.70;;;;;;;9.99;53.53;93805.66;5078178;28;20035;-76
2023/04/01 03:58:31;;;;;;;7.82;4.85;;;;;;;9.95;52.64;93811.31;5069275;28;20032;-76
2023/04/01 04:00:57;;;;;;;6.80;4.30;;;;;;;10.02;52.52;93799.38;5090465;28;20039;-76
2023/04/01 04:03:22;;;;;;;9.57;3.90;;;;;;;10.08;52.31;93780.59;5089648;28;20028;-76
2023/04/01 04:05:48;;;;;;;6.85;3.55;;;;;;;10.04;51.03;93750.75;5089364;28;20110;-76
2023/04/01 04:08:14;;;;;;;9.05;4.53;;;;;;;10.18;51.90;93737.22;5089505;28;20086;-76
2023/04/01 04:10:41;;;;;;;9.77;4.80;;;;;;;10.09;52.64;93735.53;5089252;28;20036;-76
2023/04/01 04:13:06;;;;;;;8.88;4.60;;;;;;;10.26;52.25;93745.06;5089456;28;20066;-76
2023/04/01 04:15:32;;;;;;;8.35;4.28;;;;;;;10.31;51.89;93725.66;5072586;28;20514;-76
2023/04/01 04:17:57;;;;;;;9.35;5.82;;;;;;;10.33;52.20;93726.31;5088865;28;20482;-76
2023/04/01 04:20:22;;;;;;;11.90;5.88;;;;;;;10.42;51.78;93723.66;5088211;28;20024;-76
2023/04/01 04:22:48;;;;;;;12.68;5.88;;;;;;;10.46;51.35;93722.38;5068733;28;20036;-74
2023/04/01 04:25:14;;;;;;;10.55;5.43;;;;;;;10.33;51.33;93711.56;5080500;28;20028;-75
2023/04/01 04:27:39;;;;;;;12.88;5.32;;;;;;;10.44;51.15;93705.31;5089027;28;20493;-77
2023/04/01 04:30:05;;;;;;;8.45;4.90;;;;;;;10.36;51.76;93679.28;5068972;28;20494;-77
2023/04/01 04:32:31;;;;;;;24.92;4.82;;;;;;;10.42;52.19;93689.06;5096455;28;20521;-77
2023/04/01 04:34:56;;;;;;;11.27;4.80;;;;;;;10.24;52.96;93657.94;5071186;28;20050;-77
2023/04/01 04:37:22;;;;;;;10.77;5.57;;;;;;;10.41;54.06;93690.03;5083474;28;20028;-76
2023/04/01 04:39:47;;;;;;;8.07;4.78;;;;;;;10.27;53.75;93666.25;5085063;28;20394;-75
2023/04/01 04:42:13;;;;;;;9.70;4.80;;;;;;;10.33;54.03;93661.44;5086523;28;20036;-74
2023/04/01 04:44:39;;;;;;;10.50;6.55;;;;;;;10.27;53.78;93652.47;5085221;28;20070;-75
2023/04/01 04:47:04;;;;;;;11.32;6.70;;;;;;;9.69;54.02;93573.44;5085756;28;20058;-76
2023/04/01 04:49:30;;;;;;;11.02;6.53;;;;;;;10.21;54.20;93648.69;5073016;28;20031;-77
2023/04/01 04:51:56;;;;;;;8.13;5.55;;;;;;;10.34;54.09;93663.09;5055125;28;20042;-77
2023/04/01 04:54:22;;;;;;;11.55;5.55;;;;;;;10.44;53.36;93661.16;5087815;28;20468;-74
2023/04/01 04:56:47;;;;;;;9.73;4.95;;;;;;;10.31;52.19;93634.81;5087227;28;20020;-75
2023/04/01 04:59:13;;;;;;;10.13;4.82;;;;;;;10.44;52.82;93651.59;5089208;28;20032;-73
2023/04/01 05:01:38;;;;;;;7.18;4.90;;;;;;;10.46;52.78;93631.50;5087965;28;20027;-73
2023/04/01 05:04:04;;;;;;;8.48;4.18;;;;;;;10.38;53.59;93638.44;5088785;28;20587;-74
2023/04/01 05:06:31;;;;;;;11.18;4.63;;;;;;;10.10;55.17;93642.94;5086589;28;20058;-76
2023/04/01 05:08:56;;;;;;;9.27;5.03;;;;;;;10.12;55.37;93641.81;5088022;28;20111;-76
2023/04/01 05:11:22;;;;;;;6.85;4.07;;;;;;;10.13;55.40;93634.84;5054478;28;20494;-74
2023/04/01 05:13:47;;;;;;;9.60;4.25;;;;;;;10.16;53.70;93635.34;5054964;28;20056;-74
2023/04/01 05:16:17;;;;;;;6.57;4.13;;;;;;;10.13;54.94;93632.25;5053095;28;20097;-74
2023/04/01 05:18:43;;;;;;;8.20;5.13;;;;;;;10.09;53.76;93633.53;5071369;28;20036;-73
2023/04/01 05:21:09;;;;;;;9.27;4.50;;;;;;;10.19;54.48;93635.03;5087767;28;20061;-74
2023/04/01 05:23:35;;;;;;;7.72;4.53;;;;;;;10.19;55.10;93626.44;5087777;28;20056;-73
2023/04/01 05:26:07;;;;;;;27.20;11.73;;;;;;;10.13;55.06;93601.91;5086200;28;20056;-73
2023/04/01 05:28:33;;;;;;;11.20;5.57;;;;;;;9.98;54.27;93574.94;5087812;28;20067;-73
2023/04/01 05:31:00;;;;;;;12.73;5.32;;;;;;;10.29;52.99;93585.66;5088204;28;20036;-73
2023/04/01 05:33:30;;;;;;;13.38;5.57;;;;;;;10.28;54.35;93584.84;5071165;28;20078;-72
2023/04/01 05:35:55;;;;;;;10.38;5.00;;;;;;;10.40;53.91;93581.97;5068788;28;20040;-73
2023/04/01 05:38:21;;;;;;;10.85;5.38;;;;;;;10.60;53.26;93598.94;5089266;28;20391;-73
2023/04/01 05:40:46;;;;;;;7.72;4.50;;;;;;;11.07;51.04;93600.22;5070249;28;20124;-72
2023/04/01 05:43:12;;;;;;;6.20;3.40;;;;;;;11.37;49.47;93593.59;5087764;28;20173;-72
2023/04/01 05:45:37;;;;;;;9.07;3.08;;;;;;;11.66;46.43;93561.09;5054133;28;20043;-73
2023/04/01 05:48:03;;;;;;;7.35;3.33;;;;;;;12.19;46.28;93578.75;5073743;28;20040;-74
2023/04/01 05:50:28;;;;;;;6.40;2.50;;;;;;;12.57;42.45;93567.75;5089289;28;20020;-73
2023/04/01 05:52:54;;;;;;;6.00;3.10;;;;;;;13.07;42.50;93566.50;5088348;28;20051;-72
2023/04/01 05:55:19;;;;;;;6.20;3.40;;;;;;;13.54;42.64;93583.81;5089044;28;20028;-72
2023/04/01 05:57:46;;;;;;;13.45;4.68;;;;;;;13.89;43.64;93602.47;5085717;28;20036;-73
2023/04/01 06:00:12;;;;;;;10.50;5.10;;;;;;;14.12;43.78;93592.78;5086616;28;20031;-73
2023/04/01 06:02:38;;;;;;;12.98;6.60;;;;;;;14.22;43.63;93571.63;5088967;28;20044;-73
2023/04/01 06:05:19;;;;;;;12.57;5.20;;;;;;;14.58;42.57;93571.75;5053644;28;20168;-73
2023/04/01 06:07:45;;;;;;;9.73;4.50;;;;;;;14.45;40.97;93561.09;5086357;28;20416;-73
2023/04/01 06:10:13;;;;;;;11.40;3.80;;;;;;;14.27;40.06;93533.53;5088591;28;20080;-73
2023/04/01 06:13:22;;;;;;;6.82;2.20;;;;;;;14.76;34.67;93553.06;5087409;28;20056;-74
2023/04/01 06:15:55;;;;;;;6.38;1.38;;;;;;;15.03;34.29;93553.38;5072914;28;20047;-73
2023/04/01 06:18:30;;;;;;;9.10;2.03;;;;;;;15.13;33.15;93562.56;5068264;28;20059;-74
2023/04/01 06:21:26;;;;;;;6.63;4.28;;;;;;;15.09;38.96;93568.34;5086311;28;20490;-73
2023/04/01 06:24:07;;;;;;;11.77;4.88;;;;;;;14.73;40.83;93562.09;5087336;28;20070;-76
2023/04/01 06:26:52;;;;;;;9.90;5.00;;;;;;;14.67;41.50;93578.50;5087031;28;20494;-74
2023/04/01 06:29:51;;;;;;;16.08;5.22;;;;;;;14.42;41.92;93566.69;5084412;28;20024;-73
2023/04/01 06:32:38;;;;;;;8.00;4.75;;;;;;;14.25;42.54;93586.94;5083624;28;20084;-73
2023/04/01 06:35:21;;;;;;;12.23;5.82;;;;;;;14.00;42.77;93586.38;5082753;28;20036;-73
2023/04/01 06:38:08;;;;;;;8.23;4.70;;;;;;;13.85;42.57;93553.22;5085854;28;20051;-74
2023/04/01 06:40:57;;;;;;;12.80;6.35;;;;;;;13.85;43.33;93549.81;5086602;28;20028;-74
2023/04/01 06:43:50;;;;;;;11.63;5.72;;;;;;;13.97;43.33;93578.91;5054150;28;20476;-73
2023/04/01 06:46:41;;;;;;;12.95;6.57;;;;;;;13.84;43.40;93569.84;5088489;28;20119;-74
2023/04/01 06:49:30;;;;;;;13.27;5.30;;;;;;;13.79;43.53;93560.94;5082566;28;20115;-76
2023/04/01 06:51:59;;;;;;;11.07;5.32;;;;;;;13.46;44.24;93549.97;5085621;28;20028;-73
2023/04/01 06:54:31;;;;;;;10.98;6.60;;;;;;;13.05;45.10;93553.63;5087833;28;20039;-74
2023/04/01 06:56:59;;;;;;;10.48;5.53;;;;;;;12.93;45.27;93527.16;5070489;28;20031;-73
2023/04/01 06:59:25;;;;;;;10.75;5.65;;;;;;;13.05;45.48;93548.44;5067455;28;21718;-73
2023/04/01 07:01:53;;;;;;;10.18;6.20;;;;;;;13.10;45.97;93542.72;5069364;28;20028;-73
2023/04/01 07:04:38;;;;;;;16.77;10.77;;;;;;;13.07;46.28;93535.22;5052760;28;20032;-72
2023/04/01 07:07:32;;;;;;;26.05;16.27;;;;;;;12.86;46.22;93504.56;5069002;28;20499;-74
2023/04/01 07:09:59;;;;;;;20.48;7.63;;;;;;;13.04;46.46;93543.38;5086766;28;20398;-72
2023/04/01 07:12:31;;;;;;;9.77;6.70;;;;;;;13.03;46.66;93539.16;5053028;28;20136;-72
2023/04/01 07:14:56;;;;;;;10.98;6.20;;;;;;;12.96;47.00;93526.81;5086850;28;20035;-72
2023/04/01 07:17:30;;;;;;;18.45;7.53;;;;;;;12.92;47.16;93528.13;5049225;28;20040;-73
2023/04/01 07:20:12;;;;;;;10.93;6.25;;;;;;;12.91;47.24;93525.72;5069412;28;20495;-73
2023/04/01 07:22:45;;;;;;;14.90;6.03;;;;;;;12.88;47.40;93519.03;5084169;28;20483;-72
2023/04/01 07:25:13;;;;;;;13.07;6.47;;;;;;;12.65;47.88;93485.16;5068774;28;20041;-74
2023/04/01 07:27:39;;;;;;;14.00;6.57;;;;;;;12.69;47.66;93476.00;5048163;28;20047;-76
2023/04/01 07:30:14;;;;;;;11.73;6.32;;;;;;;12.97;48.06;93515.41;5085342;28;20107;-72
2023/04/01 07:32:48;;;;;;;15.43;7.90;;;;;;;12.96;48.33;93529.41;5089562;28;20474;-71
2023/04/01 07:35:28;;;;;;;10.35;6.47;;;;;;;12.99;48.43;93528.28;5079642;28;20164;-73
2023/04/01 07:38:00;;;;;;;11.65;6.13;;;;;;;12.96;48.01;93537.25;5078924;28;20575;-76
2023/04/01 07:40:37;;;;;;;11.00;5.65;;;;;;;12.40;47.97;93457.63;5086508;28;20020;-77
2023/04/01 07:43:24;;;;;;;10.73;5.28;;;;;;;12.94;48.20;93533.19;5072354;28;20032;-78
2023/04/01 07:46:03;;;;;;;13.35;6.15;;;;;;;12.86;48.29;93518.41;5072472;28;20036;-73
2023/04/01 07:48:37;;;;;;;11.40;6.53;;;;;;;12.89;48.14;93489.38;5074291;28;20085;-74
2023/04/01 07:51:10;;;;;;;13.80;6.53;;;;;;;13.16;48.62;93521.16;5072819;28;20071;-74
2023/04/01 07:54:13;;;;;;;9.60;6.00;;;;;;;13.23;48.41;93518.66;5088733;28;20500;-73
2023/04/01 07:57:06;;;;;;;20.23;7.30;;;;;;;13.19;48.81;93518.19;5088653;28;20039;-76
2023/04/01 07:59:40;;;;;;;13.18;6.97;;;;;;;13.14;48.85;93520.50;5093360;28;20027;-76
2023/04/01 08:02:39;;;;;;;14.07;6.18;;;;;;;12.84;49.06;93451.78;5090772;28;20036;-75
2023/04/01 08:05:14;;;;;;;12.93;6.93;;;;;;;13.24;49.15;93520.28;5085717;28;20047;-77
2023/04/01 08:08:16;;;;;;;18.25;7.07;;;;;;;13.23;49.64;93519.44;5091285;28;20028;-76
2023/04/01 08:10:50;;;;;;;12.20;6.35;;;;;;;13.35;49.71;93523.31;5090709;28;20513;-75
2023/04/01 08:13:35;;;;;;;11.68;6.28;;;;;;;13.34;49.03;93519.06;5088807;28;20039;-76
2023/04/01 08:16:14;;;;;;;12.75;6.05;;;;;;;13.19;49.06;93489.50;5095210;28;20024;-76
2023/04/01 08:19:13;;;;;;;17.13;7.47;;;;;;;13.43;49.15;93504.19;5070500;28;20131;-75
2023/04/01 08:21:50;;;;;;;12.02;7.00;;;;;;;13.27;49.36;93483.44;5092420;28;20067;-75
2023/04/01 08:24:27;;;;;;;11.77;6.10;;;;;;;13.36;49.45;93483.19;5076253;28;20051;-74
2023/04/01 08:26:58;;;;;;;13.63;6.03;;;;;;;13.62;48.86;93495.03;5059828;28;20493;-75
2023/04/01 08:29:38;;;;;;;13.57;5.72;;;;;;;13.70;48.04;93471.47;5090362;28;20040;-74
2023/04/01 08:32:07;;;;;;;10.35;5.40;;;;;;;13.58;48.27;93471.09;5086894;28;20037;-73
2023/04/01 08:34:36;;;;;;;8.85;5.30;;;;;;;13.58;48.42;93460.66;5087814;28;20036;-76
2023/04/01 08:37:17;;;;;;;9.95;5.20;;;;;;;13.54;48.27;93441.16;5091030;28;20024;-75
2023/04/01 08:39:56;;;;;;;11.50;5.07;;;;;;;13.66;48.51;93438.09;5091865;28;20047;-75
2023/04/01 08:42:25;;;;;;;14.07;6.22;;;;;;;13.81;48.13;93438.91;5076354;28;20114;-74
2023/04/01 08:45:24;;;;;;;11.45;6.47;;;;;;;14.00;47.85;93424.50;5091138;28;20081;-74
2023/04/01 08:48:13;;;;;;;13.88;5.90;;;;;;;13.90;47.78;93421.34;5091389;28;20481;-74
2023/04/01 08:51:04;;;;;;;11.65;6.80;;;;;;;14.06;47.66;93411.53;5090076;28;20040;-74
2023/04/01 08:53:41;;;;;;;10.48;6.75;;;;;;;14.31;47.79;93408.59;5092032;28;20036;-74
2023/04/01 08:56:34;;;;;;;11.13;6.50;;;;;;;14.72;47.09;93406.25;5091551;28;20032;-74
2023/04/01 08:59:31;;;;;;;18.98;7.50;;;;;;;14.62;46.48;93357.91;5072622;28;20036;-74
2023/04/01 09:02:32;;;;;;;13.30;6.70;;;;;;;15.24;45.89;93404.31;5092480;28;20035;-74
2023/04/01 09:05:19;;;;;;;9.63;4.93;;;;;;;15.31;44.23;93388.66;5067283;28;20110;-74
2023/04/01 09:08:22;;;;;;;9.38;5.10;;;;;;;15.28;44.84;93408.16;5110567;28;20027;-74
2023/04/01 09:11:06;;;;;;;12.93;6.53;;;;;;;15.31;44.40;93405.16;5098236;28;20128;-73
2023/04/01 09:13:40;;;;;;;21.40;10.13;;;;;;;15.29;45.11;93403.72;5089745;28;20032;-75
2023/04/01 09:16:36;;;;;;;22.98;13.73;;;;;;;15.45;44.28;93402.66;5089192;28;20570;-75
2023/04/01 09:19:26;;;;;;;16.60;7.55;;;;;;;15.55;44.08;93405.75;5092422;28;20032;-75
2023/04/01 09:22:13;;;;;;;15.85;7.82;;;;;;;15.56;44.24;93402.91;5112779;28;20550;-75
2023/04/01 09:24:56;;;;;;;29.33;10.90;;;;;;;15.36;42.64;93373.19;5111741;28;20028;-75
2023/04/01 09:27:24;;;;;;;15.30;7.38;;;;;;;15.56;43.26;93391.66;5112602;28;20027;-75
2023/04/01 09:30:08;;;;;;;16.38;6.00;;;;;;;15.52;43.08;93391.22;5111713;28;20042;-75
2023/04/01 09:32:52;;;;;;;14.00;6.18;;;;;;;15.25;43.50;93386.81;5111534;28;20050;-75
2023/04/01 09:35:42;;;;;;;14.43;5.35;;;;;;;15.25;43.92;93379.75;5109337;28;20028;-75
2023/04/01 09:38:23;;;;;;;15.70;5.25;;;;;;;15.18;42.50;93382.34;5110368;28;20028;-75
2023/04/01 09:41:12;;;;;;;10.38;4.82;;;;;;;15.00;42.45;93371.53;5109936;28;20015;-75
2023/04/01 09:43:53;;;;;;;11.35;5.05;;;;;;;15.13;42.76;93376.88;5095380;28;20034;-74
2023/04/01 09:46:25;;;;;;;11.82;6.75;;;;;;;14.93;43.08;93370.66;5111323;28;20212;-75
2023/04/01 09:49:08;;;;;;;13.18;6.63;;;;;;;14.98;43.23;93369.09;5111091;28;20027;-75
2023/04/01 09:51:54;;;;;;;14.50;4.97;;;;;;;14.88;43.44;93367.81;5109566;28;20039;-74
2023/04/01 09:54:26;;;;;;;15.82;4.95;;;;;;;14.91;43.59;93364.81;5109939;28;20039;-75
2023/04/01 09:57:19;;;;;;;16.73;4.85;;;;;;;14.91;43.42;93355.16;5111484;28;20383;-75
2023/04/01 10:00:03;;;;;;;10.70;4.60;;;;;;;15.10;43.13;93353.72;5111670;28;20104;-74
2023/04/01 10:02:50;;;;;;;10.50;4.10;;;;;;;15.14;42.89;93347.09;5111792;28;20404;-75
2023/04/01 10:05:53;;;;;;;11.55;4.85;;;;;;;15.24;42.93;93336.31;5094345;28;20524;-75
2023/04/01 10:08:21;;;;;;;9.77;4.30;;;;;;;15.25;43.03;93337.09;5111490;28;20035;-75
2023/04/01 10:11:37;;;;;;;10.48;6.13;;;;;;;15.26;43.71;93331.66;5112739;28;20039;-74
2023/04/01 10:14:09;;;;;;;16.65;6.78;;;;;;;15.40;43.45;93316.88;5089022;28;20118;-75
2023/04/01 10:16:37;;;;;;;18.13;6.75;;;;;;;15.30;43.70;93319.84;5111405;28;20092;-75
2023/04/01 10:19:12;;;;;;;13.82;6.57;;;;;;;15.35;43.41;93330.53;5105279;27;20668;-75
2023/04/01 10:21:55;;;;;;;12.82;6.47;;;;;;;15.40;44.04;93327.31;5074956;28;20060;-75
2023/04/01 10:24:46;;;;;;;14.88;6.57;;;;;;;15.44;41.56;93310.25;5071550;28;20113;-75
2023/04/01 10:27:39;;;;;;;11.95;6.50;;;;;;;15.48;42.41;93315.91;5089968;28;20020;-75
2023/04/01 10:30:38;;;;;;;12.02;6.10;;;;;;;15.55;39.48;93293.22;5092308;28;20042;-75
2023/04/01 10:33:03;;;;;;;12.75;5.53;;;;;;;15.45;39.95;93296.16;5094137;28;20161;-72
2023/04/01 10:35:53;;;;;;;13.30;5.75;;;;;;;15.46;39.96;93307.44;5093492;28;20098;-75
2023/04/01 10:38:26;;;;;;;10.00;3.70;;;;;;;15.56;39.91;93292.19;5087931;28;20559;-76
2023/04/01 10:41:11;;;;;;;10.77;3.30;;;;;;;15.58;38.96;93291.00;5087752;28;20056;-77
2023/04/01 10:43:55;;;;;;;8.77;3.90;;;;;;;15.62;40.11;93280.94;5089288;28;20074;-77
2023/04/01 10:46:41;;;;;;;10.23;4.25;;;;;;;15.66;40.85;93271.72;5101954;28;20035;-74
2023/04/01 10:49:15;;;;;;;9.13;4.70;;;;;;;15.69;39.97;93260.88;5088734;28;20043;-76
2023/04/01 10:51:46;;;;;;;8.25;3.67;;;;;;;15.72;40.12;93264.94;5089218;28;20063;-75
2023/04/01 10:54:34;;;;;;;10.50;4.25;;;;;;;15.79;38.49;93271.78;5091447;28;20095;-75
2023/04/01 10:57:07;;;;;;;7.70;3.55;;;;;;;15.38;39.00;93195.91;5090108;28;20426;-75
2023/04/01 11:00:11;;;;;;;10.50;3.40;;;;;;;15.31;39.36;93185.41;5090005;28;20036;-76
2023/04/01 11:02:45;;;;;;;8.02;3.47;;;;;;;15.94;39.07;93263.00;5086529;28;20032;-75
2023/04/01 11:05:26;;;;;;;21.60;11.55;;;;;;;15.93;38.91;93267.38;5090387;28;20397;-75
2023/04/01 11:08:13;;;;;;;10.57;6.10;;;;;;;15.94;39.72;93253.31;5089519;28;20089;-75
2023/04/01 11:10:57;;;;;;;10.88;3.70;;;;;;;15.88;40.58;93259.34;5090633;28;20039;-79
2023/04/01 11:13:30;;;;;;;10.63;4.30;;;;;;;15.03;41.39;93146.25;5071114;28;20506;-76
2023/04/01 11:16:43;;;;;;;5.13;2.40;;;;;;;15.64;37.79;93227.41;5079438;28;20493;-75
2023/04/01 11:19:26;;;;;;;8.82;2.90;;;;;;;15.71;35.16;93239.72;5087859;28;20050;-73
2023/04/01 11:21:57;;;;;;;8.90;3.00;;;;;;;15.90;35.63;93225.91;5099453;28;20536;-73
2023/04/01 11:24:41;;;;;;;9.82;1.95;;;;;;;16.04;34.70;93226.72;5090906;28;20075;-73
2023/04/01 11:27:42;;;;;;;5.45;2.20;;;;;;;16.16;35.12;93227.78;5089379;28;20093;-73
2023/04/01 11:30:17;;;;;;;5.43;2.03;;;;;;;16.15;34.92;93226.16;5066656;28;20043;-73
2023/04/01 11:32:42;;;;;;;7.90;2.83;;;;;;;16.25;34.85;93238.88;5072327;28;20032;-73
2023/04/01 11:35:55;;;;;;;8.20;2.03;;;;;;;16.34;34.56;93263.88;5093224;28;20543;-74
2023/04/01 11:38:33;;;;;;;6.63;1.90;;;;;;;16.38;34.67;93265.09;5036343;28;20060;-73
2023/04/01 11:41:45;;;;;;;4.97;1.60;;;;;;;16.46;34.29;93277.97;5100485;28;20039;-75
2023/04/01 11:44:24;;;;;;;9.13;2.50;;;;;;;16.45;35.27;93307.03;5062705;28;20047;-74
2023/04/01 11:47:13;;;;;;;4.75;2.10;;;;;;;16.18;41.51;93382.91;5097138;28;20040;-75
2023/04/01 11:50:03;;;;;;;6.25;1.90;;;;;;;15.38;44.96;93400.00;5090793;28;20036;-75
2023/04/01 11:53:06;;;;;;;8.80;1.90;;;;;;;15.01;46.96;93422.81;5091542;28;20031;-75
2023/04/01 11:55:40;;;;;;;7.82;2.72;;;;;;;14.85;49.17;93454.44;5088764;28;20286;-74
2023/04/01 11:58:30;;;;;;;6.45;2.88;;;;;;;14.41;53.27;93487.50;5093117;28;20065;-76
2023/04/01 12:01:19;;;;;;;3.70;1.80;;;;;;;13.80;55.21;93511.19;5092801;28;20085;-77
2023/04/01 12:04:25;;;;;;;4.82;2.10;;;;;;;13.52;59.03;93515.38;5080753;28;20047;-78
2023/04/01 12:07:10;;;;;;;11.48;4.30;;;;;;;12.81;58.35;93457.34;5089846;28;20047;-78